sensor_id;sensor_type;location;lat;lon;timestamp;P1;durP1;ratioP1;P2;durP2;ratioP2
4047;SDS011;2038;51.728;6.674;2023-03-23T00:01:13;12.57;;;5.40;;
4047;SDS011;2038;51.728;6.674;2023-03-23T00:03:45;5.87;;;5.03;;
4047;SDS011;2038;51.728;6.674;2023-03-23T00:06:14;6.77;;;4.33;;
4047;SDS011;2038;51.728;6.674;2023-03-23T00:08:43;7.50;;;5.13;;
4047;SDS011;2038;51.728;6.674;2023-03-23T00:11:12;7.13;;;4.63;;
4047;SDS011;2038;51.728;6.674;2023-03-23T00:13:41;7.93;;;4.60;;
4047;SDS011;2038;51.728;6.674;2023-03-23T00:16:09;5.57;;;4.07;;
4047;SDS011;2038;51.728;6.674;2023-03-23T00:18:51;6.77;;;3.97;;
4047;SDS011;2038;51.728;6.674;2023-03-23T00:21:18;4.40;;;4.00;;
4047;SDS011;2038;51.728;6.674;2023-03-23T00:23:50;6.43;;;4.50;;
4047;SDS011;2038;51.728;6.674;2023-03-23T00:26:17;8.70;;;4.83;;
4047;SDS011;2038;51.728;6.674;2023-03-23T00:28:43;4.87;;;4.43;;
4047;SDS011;2038;51.728;6.674;2023-03-23T00:31:11;4.97;;;4.20;;
4047;SDS011;2038;51.728;6.674;2023-03-23T00:33:38;5.27;;;4.33;;
4047;SDS011;2038;51.728;6.674;2023-03-23T00:36:08;9.17;;;4.90;;
4047;SDS011;2038;51.728;6.674;2023-03-23T00:38:37;9.57;;;4.40;;
4047;SDS011;2038;51.728;6.674;2023-03-23T00:41:06;5.80;;;4.23;;
4047;SDS011;2038;51.728;6.674;2023-03-23T00:43:36;13.20;;;4.90;;
4047;SDS011;2038;51.728;6.674;2023-03-23T00:46:03;5.83;;;4.57;;
4047;SDS011;2038;51.728;6.674;2023-03-23T00:48:34;5.40;;;4.90;;
4047;SDS011;2038;51.728;6.674;2023-03-23T00:51:05;9.70;;;4.57;;
4047;SDS011;2038;51.728;6.674;2023-03-23T00:53:35;9.67;;;4.73;;
4047;SDS011;2038;51.728;6.674;2023-03-23T00:56:01;10.70;;;5.30;;
4047;SDS011;2038;51.728;6.674;2023-03-23T00:58:28;7.90;;;4.37;;
4047;SDS011;2038;51.728;6.674;2023-03-23T01:00:54;7.30;;;4.70;;
4047;SDS011;2038;51.728;6.674;2023-03-23T01:03:21;7.10;;;5.03;;
4047;SDS011;2038;51.728;6.674;2023-03-23T01:05:51;6.70;;;5.13;;
4047;SDS011;2038;51.728;6.674;2023-03-23T01:08:18;7.03;;;4.70;;
4047;SDS011;2038;51.728;6.674;2023-03-23T01:10:46;7.33;;;5.17;;
4047;SDS011;2038;51.728;6.674;2023-03-23T01:13:13;6.93;;;5.30;;
4047;SDS011;2038;51.728;6.674;2023-03-23T01:15:40;8.13;;;4.83;;
4047;SDS011;2038;51.728;6.674;2023-03-23T01:18:08;7.10;;;5.07;;
4047;SDS011;2038;51.728;6.674;2023-03-23T01:20:36;6.50;;;5.10;;
4047;SDS011;2038;51.728;6.674;2023-03-23T01:23:03;7.97;;;4.77;;
4047;SDS011;2038;51.728;6.674;2023-03-23T01:25:31;7.60;;;4.40;;
4047;SDS011;2038;51.728;6.674;2023-03-23T01:28:01;12.90;;;6.20;;
4047;SDS011;2038;51.728;6.674;2023-03-23T01:30:28;8.50;;;5.27;;
4047;SDS011;2038;51.728;6.674;2023-03-23T01:32:54;7.90;;;5.97;;
4047;SDS011;2038;51.728;6.674;2023-03-23T01:35:21;10.97;;;5.50;;
4047;SDS011;2038;51.728;6.674;2023-03-23T01:37:47;8.53;;;4.97;;
4047;SDS011;2038;51.728;6.674;2023-03-23T01:40:14;7.40;;;5.47;;
4047;SDS011;2038;51.728;6.674;2023-03-23T01:42:41;7.97;;;5.17;;
4047;SDS011;2038;51.728;6.674;2023-03-23T01:47:53;7.07;;;5.40;;
4047;SDS011;2038;51.728;6.674;2023-03-23T01:50:30;16.83;;;5.47;;
4047;SDS011;2038;51.728;6.674;2023-03-23T01:53:25;7.83;;;5.33;;
4047;SDS011;2038;51.728;6.674;2023-03-23T01:55:58;6.47;;;4.57;;
4047;SDS011;2038;51.728;6.674;2023-03-23T01:58:28;9.30;;;5.30;;
4047;SDS011;2038;51.728;6.674;2023-03-23T02:00:59;5.87;;;4.80;;
4047;SDS011;2038;51.728;6.674;2023-03-23T02:03:36;8.30;;;5.17;;
4047;SDS011;2038;51.728;6.674;2023-03-23T02:06:06;6.03;;;5.43;;
4047;SDS011;2038;51.728;6.674;2023-03-23T02:08:32;8.13;;;5.40;;
4047;SDS011;2038;51.728;6.674;2023-03-23T02:11:00;8.53;;;5.80;;
4047;SDS011;2038;51.728;6.674;2023-03-23T02:13:37;9.80;;;5.13;;
4047;SDS011;2038;51.728;6.674;2023-03-23T02:16:14;11.73;;;5.23;;
4047;SDS011;2038;51.728;6.674;2023-03-23T02:30:41;9.27;;;5.07;;
4047;SDS011;2038;51.728;6.674;2023-03-23T02:39:09;10.07;;;4.50;;
4047;SDS011;2038;51.728;6.674;2023-03-23T02:41:55;10.30;;;4.83;;
4047;SDS011;2038;51.728;6.674;2023-03-23T02:44:29;6.80;;;5.27;;
4047;SDS011;2038;51.728;6.674;2023-03-23T02:47:00;7.43;;;4.70;;
4047;SDS011;2038;51.728;6.674;2023-03-23T02:49:32;7.40;;;4.53;;
4047;SDS011;2038;51.728;6.674;2023-03-23T02:52:05;6.53;;;4.80;;
4047;SDS011;2038;51.728;6.674;2023-03-23T02:54:39;5.10;;;4.27;;
4047;SDS011;2038;51.728;6.674;2023-03-23T02:57:10;5.63;;;4.90;;
4047;SDS011;2038;51.728;6.674;2023-03-23T02:59:36;6.37;;;5.73;;
4047;SDS011;2038;51.728;6.674;2023-03-23T03:04:43;5.53;;;5.00;;
4047;SDS011;2038;51.728;6.674;2023-03-23T03:16:34;8.30;;;5.17;;
4047;SDS011;2038;51.728;6.674;2023-03-23T03:19:26;7.30;;;4.63;;
4047;SDS011;2038;51.728;6.674;2023-03-23T03:22:00;14.03;;;6.07;;
4047;SDS011;2038;51.728;6.674;2023-03-23T03:24:29;5.43;;;4.60;;
4047;SDS011;2038;51.728;6.674;2023-03-23T03:26:58;5.90;;;5.30;;
4047;SDS011;2038;51.728;6.674;2023-03-23T03:29:35;7.17;;;6.17;;
4047;SDS011;2038;51.728;6.674;2023-03-23T03:32:12;6.27;;;5.10;;
4047;SDS011;2038;51.728;6.674;2023-03-23T03:34:45;6.10;;;4.30;;
4047;SDS011;2038;51.728;6.674;2023-03-23T03:37:12;6.00;;;4.93;;
4047;SDS011;2038;51.728;6.674;2023-03-23T03:39:40;8.10;;;5.57;;
4047;SDS011;2038;51.728;6.674;2023-03-23T03:42:06;5.27;;;4.80;;
4047;SDS011;2038;51.728;6.674;2023-03-23T03:44:33;8.00;;;4.80;;
4047;SDS011;2038;51.728;6.674;2023-03-23T03:47:00;7.10;;;5.07;;
4047;SDS011;2038;51.728;6.674;2023-03-23T03:49:26;5.40;;;4.40;;
4047;SDS011;2038;51.728;6.674;2023-03-23T03:51:52;7.67;;;6.47;;
4047;SDS011;2038;51.728;6.674;2023-03-23T03:54:19;7.00;;;5.00;;
4047;SDS011;2038;51.728;6.674;2023-03-23T03:56:45;6.60;;;4.80;;
4047;SDS011;2038;51.728;6.674;2023-03-23T03:59:11;6.70;;;5.27;;
4047;SDS011;2038;51.728;6.674;2023-03-23T04:01:38;7.80;;;5.40;;
4047;SDS011;2038;51.728;6.674;2023-03-23T04:04:04;7.13;;;4.90;;
4047;SDS011;2038;51.728;6.674;2023-03-23T04:06:33;6.30;;;4.30;;
4047;SDS011;2038;51.728;6.674;2023-03-23T04:09:01;7.47;;;5.20;;
4047;SDS011;2038;51.728;6.674;2023-03-23T04:11:31;6.63;;;5.13;;
4047;SDS011;2038;51.728;6.674;2023-03-23T04:13:58;8.60;;;5.67;;
4047;SDS011;2038;51.728;6.674;2023-03-23T04:16:24;10.40;;;4.67;;
4047;SDS011;2038;51.728;6.674;2023-03-23T04:18:51;7.43;;;4.17;;
4047;SDS011;2038;51.728;6.674;2023-03-23T04:21:17;5.57;;;4.87;;
4047;SDS011;2038;51.728;6.674;2023-03-23T04:23:44;9.23;;;4.90;;
4047;SDS011;2038;51.728;6.674;2023-03-23T04:26:10;5.37;;;4.83;;
4047;SDS011;2038;51.728;6.674;2023-03-23T04:28:38;8.03;;;4.87;;
4047;SDS011;2038;51.728;6.674;2023-03-23T04:31:05;5.67;;;4.73;;
4047;SDS011;2038;51.728;6.674;2023-03-23T04:33:33;9.83;;;5.03;;
4047;SDS011;2038;51.728;6.674;2023-03-23T04:36:02;6.30;;;4.77;;
4047;SDS011;2038;51.728;6.674;2023-03-23T04:38:28;8.43;;;4.00;;
4047;SDS011;2038;51.728;6.674;2023-03-23T04:40:57;5.23;;;4.73;;
4047;SDS011;2038;51.728;6.674;2023-03-23T04:43:25;6.37;;;5.30;;
4047;SDS011;2038;51.728;6.674;2023-03-23T04:45:52;5.17;;;4.67;;
4047;SDS011;2038;51.728;6.674;2023-03-23T04:48:25;7.37;;;5.17;;
4047;SDS011;2038;51.728;6.674;2023-03-23T04:50:55;7.80;;;4.73;;
4047;SDS011;2038;51.728;6.674;2023-03-23T04:53:24;6.63;;;4.63;;
4047;SDS011;2038;51.728;6.674;2023-03-23T04:55:50;5.00;;;4.10;;
4047;SDS011;2038;51.728;6.674;2023-03-23T04:58:17;10.13;;;4.57;;
4047;SDS011;2038;51.728;6.674;2023-03-23T05:00:44;5.27;;;3.93;;
4047;SDS011;2038;51.728;6.674;2023-03-23T05:03:14;6.40;;;4.00;;
4047;SDS011;2038;51.728;6.674;2023-03-23T05:05:42;5.30;;;4.10;;
4047;SDS011;2038;51.728;6.674;2023-03-23T05:08:12;4.30;;;3.90;;
4047;SDS011;2038;51.728;6.674;2023-03-23T05:10:39;4.90;;;4.20;;
4047;SDS011;2038;51.728;6.674;2023-03-23T05:13:05;6.40;;;4.10;;
4047;SDS011;2038;51.728;6.674;2023-03-23T05:15:32;4.60;;;3.87;;
4047;SDS011;2038;51.728;6.674;2023-03-23T05:17:58;7.13;;;4.47;;
4047;SDS011;2038;51.728;6.674;2023-03-23T05:20:24;5.87;;;4.47;;
4047;SDS011;2038;51.728;6.674;2023-03-23T05:22:51;6.03;;;4.53;;
4047;SDS011;2038;51.728;6.674;2023-03-23T05:25:18;5.97;;;4.60;;
4047;SDS011;2038;51.728;6.674;2023-03-23T05:27:45;5.43;;;4.50;;
4047;SDS011;2038;51.728;6.674;2023-03-23T05:30:17;8.40;;;4.60;;
4047;SDS011;2038;51.728;6.674;2023-03-23T05:32:46;6.43;;;4.77;;
4047;SDS011;2038;51.728;6.674;2023-03-23T05:35:17;11.17;;;5.17;;
4047;SDS011;2038;51.728;6.674;2023-03-23T05:37:45;6.60;;;4.27;;
4047;SDS011;2038;51.728;6.674;2023-03-23T05:40:11;5.30;;;3.90;;
4047;SDS011;2038;51.728;6.674;2023-03-23T05:42:39;5.53;;;4.50;;
4047;SDS011;2038;51.728;6.674;2023-03-23T05:45:07;5.50;;;4.60;;
4047;SDS011;2038;51.728;6.674;2023-03-23T05:47:36;5.33;;;3.67;;
4047;SDS011;2038;51.728;6.674;2023-03-23T05:50:04;4.60;;;4.20;;
4047;SDS011;2038;51.728;6.674;2023-03-23T05:52:34;4.60;;;3.83;;
4047;SDS011;2038;51.728;6.674;2023-03-23T05:55:01;8.87;;;4.07;;
4047;SDS011;2038;51.728;6.674;2023-03-23T05:57:29;6.50;;;3.80;;
4047;SDS011;2038;51.728;6.674;2023-03-23T05:59:56;9.80;;;3.90;;
4047;SDS011;2038;51.728;6.674;2023-03-23T06:02:23;10.53;;;4.67;;
4047;SDS011;2038;51.728;6.674;2023-03-23T06:04:53;4.47;;;3.40;;
4047;SDS011;2038;51.728;6.674;2023-03-23T06:07:22;4.27;;;3.87;;
4047;SDS011;2038;51.728;6.674;2023-03-23T06:09:50;5.30;;;4.10;;
4047;SDS011;2038;51.728;6.674;2023-03-23T06:12:17;7.83;;;3.67;;
4047;SDS011;2038;51.728;6.674;2023-03-23T06:14:47;8.83;;;4.30;;
4047;SDS011;2038;51.728;6.674;2023-03-23T06:17:14;10.10;;;4.50;;
4047;SDS011;2038;51.728;6.674;2023-03-23T06:19:42;4.80;;;4.10;;
4047;SDS011;2038;51.728;6.674;2023-03-23T06:22:11;8.80;;;4.30;;
4047;SDS011;2038;51.728;6.674;2023-03-23T06:24:39;5.10;;;3.80;;
4047;SDS011;2038;51.728;6.674;2023-03-23T06:27:05;9.23;;;3.47;;
4047;SDS011;2038;51.728;6.674;2023-03-23T06:29:33;5.90;;;3.30;;
4047;SDS011;2038;51.728;6.674;2023-03-23T06:32:02;8.13;;;3.50;;
4047;SDS011;2038;51.728;6.674;2023-03-23T06:34:30;5.60;;;3.23;;
4047;SDS011;2038;51.728;6.674;2023-03-23T06:36:57;7.33;;;3.80;;
4047;SDS011;2038;51.728;6.674;2023-03-23T06:39:23;12.43;;;4.53;;
4047;SDS011;2038;51.728;6.674;2023-03-23T06:41:50;5.10;;;3.80;;
4047;SDS011;2038;51.728;6.674;2023-03-23T06:44:16;4.93;;;3.43;;
4047;SDS011;2038;51.728;6.674;2023-03-23T06:46:43;4.70;;;3.43;;
4047;SDS011;2038;51.728;6.674;2023-03-23T06:49:09;7.30;;;3.63;;
4047;SDS011;2038;51.728;6.674;2023-03-23T06:51:36;4.83;;;4.30;;
4047;SDS011;2038;51.728;6.674;2023-03-23T06:54:03;5.87;;;3.57;;
4047;SDS011;2038;51.728;6.674;2023-03-23T06:56:30;6.00;;;3.80;;
4047;SDS011;2038;51.728;6.674;2023-03-23T06:58:56;14.93;;;4.00;;
4047;SDS011;2038;51.728;6.674;2023-03-23T07:01:23;4.20;;;3.10;;
4047;SDS011;2038;51.728;6.674;2023-03-23T07:03:49;6.30;;;3.80;;
4047;SDS011;2038;51.728;6.674;2023-03-23T07:06:15;4.97;;;3.10;;
4047;SDS011;2038;51.728;6.674;2023-03-23T07:08:42;6.07;;;4.03;;
4047;SDS011;2038;51.728;6.674;2023-03-23T07:11:08;9.20;;;3.27;;
4047;SDS011;2038;51.728;6.674;2023-03-23T07:13:35;10.17;;;4.70;;
4047;SDS011;2038;51.728;6.674;2023-03-23T07:16:04;12.10;;;4.50;;
4047;SDS011;2038;51.728;6.674;2023-03-23T07:18:31;4.70;;;3.33;;
4047;SDS011;2038;51.728;6.674;2023-03-23T07:20:58;11.23;;;4.00;;
4047;SDS011;2038;51.728;6.674;2023-03-23T07:23:25;9.67;;;2.80;;
4047;SDS011;2038;51.728;6.674;2023-03-23T07:25:51;8.60;;;3.07;;
4047;SDS011;2038;51.728;6.674;2023-03-23T07:28:18;9.20;;;3.40;;
4047;SDS011;2038;51.728;6.674;2023-03-23T07:30:45;8.47;;;3.20;;
4047;SDS011;2038;51.728;6.674;2023-03-23T07:33:11;10.67;;;3.80;;
4047;SDS011;2038;51.728;6.674;2023-03-23T07:35:37;4.30;;;3.00;;
4047;SDS011;2038;51.728;6.674;2023-03-23T07:38:04;7.63;;;3.37;;
4047;SDS011;2038;51.728;6.674;2023-03-23T07:40:31;9.77;;;4.33;;
4047;SDS011;2038;51.728;6.674;2023-03-23T07:42:58;5.27;;;2.73;;
4047;SDS011;2038;51.728;6.674;2023-03-23T07:45:26;9.70;;;3.50;;
4047;SDS011;2038;51.728;6.674;2023-03-23T07:47:53;9.63;;;4.70;;
4047;SDS011;2038;51.728;6.674;2023-03-23T07:50:20;6.80;;;2.50;;
4047;SDS011;2038;51.728;6.674;2023-03-23T07:52:49;6.93;;;3.67;;
4047;SDS011;2038;51.728;6.674;2023-03-23T07:55:20;12.27;;;3.70;;
4047;SDS011;2038;51.728;6.674;2023-03-23T07:57:49;4.37;;;3.30;;
4047;SDS011;2038;51.728;6.674;2023-03-23T08:00:18;4.13;;;2.60;;
4047;SDS011;2038;51.728;6.674;2023-03-23T08:02:49;9.77;;;2.93;;
4047;SDS011;2038;51.728;6.674;2023-03-23T08:05:20;7.97;;;2.80;;
4047;SDS011;2038;51.728;6.674;2023-03-23T08:07:48;7.30;;;3.10;;
4047;SDS011;2038;51.728;6.674;2023-03-23T08:10:16;6.17;;;3.37;;
4047;SDS011;2038;51.728;6.674;2023-03-23T08:12:43;12.50;;;2.93;;
4047;SDS011;2038;51.728;6.674;2023-03-23T08:15:11;8.40;;;3.03;;
4047;SDS011;2038;51.728;6.674;2023-03-23T08:17:40;7.13;;;3.33;;
4047;SDS011;2038;51.728;6.674;2023-03-23T08:20:07;7.87;;;3.20;;
4047;SDS011;2038;51.728;6.674;2023-03-23T08:22:41;6.33;;;2.90;;
4047;SDS011;2038;51.728;6.674;2023-03-23T08:25:10;6.07;;;2.70;;
4047;SDS011;2038;51.728;6.674;2023-03-23T08:27:39;16.30;;;3.37;;
4047;SDS011;2038;51.728;6.674;2023-03-23T08:30:09;8.77;;;3.03;;
4047;SDS011;2038;51.728;6.674;2023-03-23T08:32:38;7.10;;;2.80;;
4047;SDS011;2038;51.728;6.674;2023-03-23T08:35:05;5.70;;;3.00;;
4047;SDS011;2038;51.728;6.674;2023-03-23T08:37:34;10.93;;;3.20;;
4047;SDS011;2038;51.728;6.674;2023-03-23T08:40:01;7.87;;;4.70;;
4047;SDS011;2038;51.728;6.674;2023-03-23T08:42:32;11.40;;;3.40;;
4047;SDS011;2038;51.728;6.674;2023-03-23T08:44:58;3.77;;;2.43;;
4047;SDS011;2038;51.728;6.674;2023-03-23T08:47:25;7.03;;;2.77;;
4047;SDS011;2038;51.728;6.674;2023-03-23T08:49:51;5.43;;;2.80;;
4047;SDS011;2038;51.728;6.674;2023-03-23T08:52:19;5.33;;;2.13;;
4047;SDS011;2038;51.728;6.674;2023-03-23T08:54:46;5.33;;;2.20;;
4047;SDS011;2038;51.728;6.674;2023-03-23T08:57:12;3.43;;;2.23;;
4047;SDS011;2038;51.728;6.674;2023-03-23T08:59:43;5.70;;;2.30;;
4047;SDS011;2038;51.728;6.674;2023-03-23T09:02:10;2.93;;;1.70;;
4047;SDS011;2038;51.728;6.674;2023-03-23T09:04:38;3.80;;;1.47;;
4047;SDS011;2038;51.728;6.674;2023-03-23T09:07:07;5.43;;;1.30;;
4047;SDS011;2038;51.728;6.674;2023-03-23T09:09:35;3.03;;;1.67;;
4047;SDS011;2038;51.728;6.674;2023-03-23T09:12:04;5.30;;;2.03;;
4047;SDS011;2038;51.728;6.674;2023-03-23T09:14:31;3.23;;;1.73;;
4047;SDS011;2038;51.728;6.674;2023-03-23T09:16:58;2.40;;;1.60;;
4047;SDS011;2038;51.728;6.674;2023-03-23T09:19:24;1.50;;;1.00;;
4047;SDS011;2038;51.728;6.674;2023-03-23T09:21:50;1.60;;;1.50;;
4047;SDS011;2038;51.728;6.674;2023-03-23T09:24:16;5.37;;;2.07;;
4047;SDS011;2038;51.728;6.674;2023-03-23T09:26:43;1.60;;;1.50;;
4047;SDS011;2038;51.728;6.674;2023-03-23T09:29:10;3.10;;;1.83;;
4047;SDS011;2038;51.728;6.674;2023-03-23T09:31:37;2.03;;;1.17;;
4047;SDS011;2038;51.728;6.674;2023-03-23T09:34:06;3.67;;;1.43;;
4047;SDS011;2038;51.728;6.674;2023-03-23T09:36:35;3.13;;;1.50;;
4047;SDS011;2038;51.728;6.674;2023-03-23T09:39:03;2.20;;;1.43;;
4047;SDS011;2038;51.728;6.674;2023-03-23T09:46:53;3.03;;;1.67;;
4047;SDS011;2038;51.728;6.674;2023-03-23T09:49:59;6.90;;;1.80;;
4047;SDS011;2038;51.728;6.674;2023-03-23T09:55:11;5.90;;;1.47;;
4047;SDS011;2038;51.728;6.674;2023-03-23T10:03:41;5.63;;;2.10;;
4047;SDS011;2038;51.728;6.674;2023-03-23T10:06:10;4.90;;;1.67;;
4047;SDS011;2038;51.728;6.674;2023-03-23T10:08:49;5.20;;;1.90;;
4047;SDS011;2038;51.728;6.674;2023-03-23T10:17:37;4.97;;;1.93;;
4047;SDS011;2038;51.728;6.674;2023-03-23T10:22:39;3.30;;;1.30;;
4047;SDS011;2038;51.728;6.674;2023-03-23T10:25:15;8.63;;;1.80;;
4047;SDS011;2038;51.728;6.674;2023-03-23T10:33:26;6.33;;;1.97;;
4047;SDS011;2038;51.728;6.674;2023-03-23T10:36:03;2.60;;;1.20;;
4047;SDS011;2038;51.728;6.674;2023-03-23T10:39:10;2.10;;;1.43;;
4047;SDS011;2038;51.728;6.674;2023-03-23T10:41:44;3.30;;;1.87;;
4047;SDS011;2038;51.728;6.674;2023-03-23T10:44:13;5.40;;;1.50;;
4047;SDS011;2038;51.728;6.674;2023-03-23T10:46:45;4.27;;;1.67;;
4047;SDS011;2038;51.728;6.674;2023-03-23T10:49:27;4.23;;;1.37;;
4047;SDS011;2038;51.728;6.674;2023-03-23T10:55:10;1.57;;;1.47;;
4047;SDS011;2038;51.728;6.674;2023-03-23T10:57:47;2.53;;;1.60;;
4047;SDS011;2038;51.728;6.674;2023-03-23T11:00:26;2.93;;;1.57;;
4047;SDS011;2038;51.728;6.674;2023-03-23T11:02:58;4.30;;;1.73;;
4047;SDS011;2038;51.728;6.674;2023-03-23T11:06:18;2.70;;;1.73;;
4047;SDS011;2038;51.728;6.674;2023-03-23T11:08:29;2.23;;;1.30;;
4047;SDS011;2038;51.728;6.674;2023-03-23T11:11:11;1.90;;;1.33;;
4047;SDS011;2038;51.728;6.674;2023-03-23T11:13:47;9.97;;;1.80;;
4047;SDS011;2038;51.728;6.674;2023-03-23T11:16:23;7.27;;;1.63;;
4047;SDS011;2038;51.728;6.674;2023-03-23T11:18:53;2.40;;;1.67;;
4047;SDS011;2038;51.728;6.674;2023-03-23T11:21:21;2.77;;;1.40;;
4047;SDS011;2038;51.728;6.674;2023-03-23T11:23:53;3.03;;;1.90;;
4047;SDS011;2038;51.728;6.674;2023-03-23T11:26:31;4.90;;;1.50;;
4047;SDS011;2038;51.728;6.674;2023-03-23T11:29:36;4.30;;;1.67;;
4047;SDS011;2038;51.728;6.674;2023-03-23T11:34:32;3.70;;;2.13;;
4047;SDS011;2038;51.728;6.674;2023-03-23T11:37:14;4.53;;;1.60;;
4047;SDS011;2038;51.728;6.674;2023-03-23T11:48:15;5.27;;;1.80;;
4047;SDS011;2038;51.728;6.674;2023-03-23T11:57:09;5.17;;;1.83;;
4047;SDS011;2038;51.728;6.674;2023-03-23T11:59:38;3.17;;;1.70;;
4047;SDS011;2038;51.728;6.674;2023-03-23T12:08:15;1.73;;;1.63;;
4047;SDS011;2038;51.728;6.674;2023-03-23T12:11:11;4.90;;;1.30;;
4047;SDS011;2038;51.728;6.674;2023-03-23T12:13:56;1.60;;;1.50;;
4047;SDS011;2038;51.728;6.674;2023-03-23T12:16:53;2.20;;;1.93;;
4047;SDS011;2038;51.728;6.674;2023-03-23T12:30:51;2.27;;;1.80;;
4047;SDS011;2038;51.728;6.674;2023-03-23T12:33:45;2.70;;;2.10;;
4047;SDS011;2038;51.728;6.674;2023-03-23T12:36:33;3.90;;;1.93;;
4047;SDS011;2038;51.728;6.674;2023-03-23T12:46:14;2.43;;;2.23;;
4047;SDS011;2038;51.728;6.674;2023-03-23T12:49:37;3.10;;;1.90;;
4047;SDS011;2038;51.728;6.674;2023-03-23T12:51:58;3.13;;;2.20;;
4047;SDS011;2038;51.728;6.674;2023-03-23T12:57:12;2.73;;;2.03;;
4047;SDS011;2038;51.728;6.674;2023-03-23T13:02:56;7.10;;;2.87;;
4047;SDS011;2038;51.728;6.674;2023-03-23T13:08:27;3.07;;;2.77;;
4047;SDS011;2038;51.728;6.674;2023-03-23T13:11:08;5.37;;;4.10;;
4047;SDS011;2038;51.728;6.674;2023-03-23T13:13:48;4.27;;;3.13;;
4047;SDS011;2038;51.728;6.674;2023-03-23T13:19:59;5.47;;;3.27;;
4047;SDS011;2038;51.728;6.674;2023-03-23T13:23:02;4.07;;;3.00;;
4047;SDS011;2038;51.728;6.674;2023-03-23T13:28:29;5.20;;;3.47;;
4047;SDS011;2038;51.728;6.674;2023-03-23T13:31:16;3.30;;;2.80;;
4047;SDS011;2038;51.728;6.674;2023-03-23T13:33:51;7.00;;;3.17;;
4047;SDS011;2038;51.728;6.674;2023-03-23T13:36:37;6.50;;;2.97;;
4047;SDS011;2038;51.728;6.674;2023-03-23T13:39:17;8.10;;;3.10;;
4047;SDS011;2038;51.728;6.674;2023-03-23T13:41:59;16.67;;;3.40;;
4047;SDS011;2038;51.728;6.674;2023-03-23T13:53:12;3.97;;;3.27;;
4047;SDS011;2038;51.728;6.674;2023-03-23T13:56:03;9.63;;;4.20;;
4047;SDS011;2038;51.728;6.674;2023-03-23T13:58:43;7.03;;;3.50;;
4047;SDS011;2038;51.728;6.674;2023-03-23T14:01:18;4.90;;;3.40;;
4047;SDS011;2038;51.728;6.674;2023-03-23T14:03:58;7.27;;;3.30;;
4047;SDS011;2038;51.728;6.674;2023-03-23T14:06:25;6.43;;;4.07;;
4047;SDS011;2038;51.728;6.674;2023-03-23T14:09:04;10.17;;;4.27;;
4047;SDS011;2038;51.728;6.674;2023-03-23T14:11:48;9.77;;;4.03;;
4047;SDS011;2038;51.728;6.674;2023-03-23T14:19:50;7.50;;;3.40;;
4047;SDS011;2038;51.728;6.674;2023-03-23T14:24:58;5.90;;;3.80;;
4047;SDS011;2038;51.728;6.674;2023-03-23T14:27:40;12.47;;;4.27;;
4047;SDS011;2038;51.728;6.674;2023-03-23T14:30:12;7.87;;;3.77;;
4047;SDS011;2038;51.728;6.674;2023-03-23T14:32:51;4.10;;;2.83;;
4047;SDS011;2038;51.728;6.674;2023-03-23T14:38:03;9.37;;;4.40;;
4047;SDS011;2038;51.728;6.674;2023-03-23T14:40:40;12.13;;;4.20;;
4047;SDS011;2038;51.728;6.674;2023-03-23T14:43:08;7.83;;;4.00;;
4047;SDS011;2038;51.728;6.674;2023-03-23T14:45:41;10.53;;;3.93;;
4047;SDS011;2038;51.728;6.674;2023-03-23T14:48:08;6.20;;;3.43;;
4047;SDS011;2038;51.728;6.674;2023-03-23T14:51:00;8.33;;;3.00;;
4047;SDS011;2038;51.728;6.674;2023-03-23T14:53:39;8.87;;;3.87;;
4047;SDS011;2038;51.728;6.674;2023-03-23T14:56:16;6.40;;;3.50;;
4047;SDS011;2038;51.728;6.674;2023-03-23T14:58:49;4.87;;;3.53;;
4047;SDS011;2038;51.728;6.674;2023-03-23T15:01:24;6.57;;;3.30;;
4047;SDS011;2038;51.728;6.674;2023-03-23T15:06:34;6.33;;;3.10;;
4047;SDS011;2038;51.728;6.674;2023-03-23T15:09:07;5.80;;;3.33;;
4047;SDS011;2038;51.728;6.674;2023-03-23T15:11:40;12.20;;;4.53;;
4047;SDS011;2038;51.728;6.674;2023-03-23T15:14:08;8.50;;;3.87;;
4047;SDS011;2038;51.728;6.674;2023-03-23T15:16:46;9.83;;;4.03;;
4047;SDS011;2038;51.728;6.674;2023-03-23T15:19:18;9.37;;;3.77;;
4047;SDS011;2038;51.728;6.674;2023-03-23T15:21:54;7.77;;;3.47;;
4047;SDS011;2038;51.728;6.674;2023-03-23T15:24:32;7.60;;;4.67;;
4047;SDS011;2038;51.728;6.674;2023-03-23T15:29:34;4.77;;;3.90;;
4047;SDS011;2038;51.728;6.674;2023-03-23T15:32:20;6.57;;;4.67;;
4047;SDS011;2038;51.728;6.674;2023-03-23T15:34:53;10.00;;;4.40;;
4047;SDS011;2038;51.728;6.674;2023-03-23T15:37:29;9.47;;;4.13;;
4047;SDS011;2038;51.728;6.674;2023-03-23T15:39:58;9.30;;;5.23;;
4047;SDS011;2038;51.728;6.674;2023-03-23T15:42:27;13.67;;;5.30;;
4047;SDS011;2038;51.728;6.674;2023-03-23T15:45:21;5.10;;;4.03;;
4047;SDS011;2038;51.728;6.674;2023-03-23T15:47:51;9.93;;;4.50;;
4047;SDS011;2038;51.728;6.674;2023-03-23T15:50:19;7.10;;;4.70;;
4047;SDS011;2038;51.728;6.674;2023-03-23T15:52:59;10.00;;;4.10;;
4047;SDS011;2038;51.728;6.674;2023-03-23T15:55:39;7.93;;;5.23;;
4047;SDS011;2038;51.728;6.674;2023-03-23T15:58:11;4.47;;;4.00;;
4047;SDS011;2038;51.728;6.674;2023-03-23T16:00:39;6.53;;;4.00;;
4047;SDS011;2038;51.728;6.674;2023-03-23T16:03:11;4.67;;;2.97;;
4047;SDS011;2038;51.728;6.674;2023-03-23T16:05:44;3.67;;;2.77;;
4047;SDS011;2038;51.728;6.674;2023-03-23T16:08:11;4.20;;;2.87;;
4047;SDS011;2038;51.728;6.674;2023-03-23T16:10:38;4.80;;;2.40;;
4047;SDS011;2038;51.728;6.674;2023-03-23T16:13:05;6.97;;;2.07;;
4047;SDS011;2038;51.728;6.674;2023-03-23T16:15:31;5.97;;;2.43;;
4047;SDS011;2038;51.728;6.674;2023-03-23T16:17:57;3.57;;;2.13;;
4047;SDS011;2038;51.728;6.674;2023-03-23T16:20:24;4.27;;;2.10;;
4047;SDS011;2038;51.728;6.674;2023-03-23T16:22:52;3.40;;;2.23;;
4047;SDS011;2038;51.728;6.674;2023-03-23T16:25:18;4.40;;;2.93;;
4047;SDS011;2038;51.728;6.674;2023-03-23T16:27:45;5.57;;;2.30;;
4047;SDS011;2038;51.728;6.674;2023-03-23T16:32:44;5.17;;;2.80;;
4047;SDS011;2038;51.728;6.674;2023-03-23T16:35:11;7.33;;;3.40;;
4047;SDS011;2038;51.728;6.674;2023-03-23T16:37:46;3.93;;;3.40;;
4047;SDS011;2038;51.728;6.674;2023-03-23T16:40:16;9.03;;;3.60;;
4047;SDS011;2038;51.728;6.674;2023-03-23T16:42:45;6.93;;;3.67;;
4047;SDS011;2038;51.728;6.674;2023-03-23T16:45:12;9.87;;;4.23;;
4047;SDS011;2038;51.728;6.674;2023-03-23T16:47:40;8.97;;;3.87;;
4047;SDS011;2038;51.728;6.674;2023-03-23T16:50:08;8.23;;;3.80;;
4047;SDS011;2038;51.728;6.674;2023-03-23T16:52:39;8.50;;;3.70;;
4047;SDS011;2038;51.728;6.674;2023-03-23T16:55:08;13.40;;;4.43;;
4047;SDS011;2038;51.728;6.674;2023-03-23T16:57:36;12.13;;;4.93;;
4047;SDS011;2038;51.728;6.674;2023-03-23T17:00:04;8.43;;;3.37;;
4047;SDS011;2038;51.728;6.674;2023-03-23T17:02:36;9.70;;;4.27;;
4047;SDS011;2038;51.728;6.674;2023-03-23T17:05:05;11.20;;;4.90;;
4047;SDS011;2038;51.728;6.674;2023-03-23T17:07:34;11.83;;;4.33;;
4047;SDS011;2038;51.728;6.674;2023-03-23T17:10:03;8.67;;;5.40;;
4047;SDS011;2038;51.728;6.674;2023-03-23T17:12:32;10.83;;;4.50;;
4047;SDS011;2038;51.728;6.674;2023-03-23T17:14:59;8.67;;;3.40;;
4047;SDS011;2038;51.728;6.674;2023-03-23T17:17:26;10.87;;;5.40;;
4047;SDS011;2038;51.728;6.674;2023-03-23T17:19:53;9.00;;;5.00;;
4047;SDS011;2038;51.728;6.674;2023-03-23T17:22:19;10.60;;;4.00;;
4047;SDS011;2038;51.728;6.674;2023-03-23T17:24:45;11.70;;;4.30;;
4047;SDS011;2038;51.728;6.674;2023-03-23T17:27:12;11.07;;;4.87;;
4047;SDS011;2038;51.728;6.674;2023-03-23T17:29:42;8.83;;;4.20;;
4047;SDS011;2038;51.728;6.674;2023-03-23T17:32:10;6.17;;;3.83;;
4047;SDS011;2038;51.728;6.674;2023-03-23T17:34:37;7.73;;;3.80;;
4047;SDS011;2038;51.728;6.674;2023-03-23T17:37:03;8.83;;;4.17;;
4047;SDS011;2038;51.728;6.674;2023-03-23T17:39:30;19.10;;;5.77;;
4047;SDS011;2038;51.728;6.674;2023-03-23T17:41:57;11.73;;;5.37;;
4047;SDS011;2038;51.728;6.674;2023-03-23T17:44:27;12.47;;;5.80;;
4047;SDS011;2038;51.728;6.674;2023-03-23T17:46:54;13.47;;;5.20;;
4047;SDS011;2038;51.728;6.674;2023-03-23T17:49:20;12.27;;;5.30;;
4047;SDS011;2038;51.728;6.674;2023-03-23T17:51:48;13.47;;;4.47;;
4047;SDS011;2038;51.728;6.674;2023-03-23T17:54:14;15.87;;;5.70;;
4047;SDS011;2038;51.728;6.674;2023-03-23T17:56:40;12.90;;;4.70;;
4047;SDS011;2038;51.728;6.674;2023-03-23T17:59:07;8.30;;;4.40;;
4047;SDS011;2038;51.728;6.674;2023-03-23T18:01:33;16.67;;;6.20;;
4047;SDS011;2038;51.728;6.674;2023-03-23T18:03:59;10.20;;;4.90;;